SBCZ/CZS METAR and TAF weather

Enter ICAO airport designator
Station Type Date Time Source
SBCZ METAR 2020/02/24 23:00 UTC NOAA

SBCZ 242300Z 00000KT 9999 FEW030 SCT100 28/25 Q1008


Station Type Date Time Source
SBCZ Decoded METAR 2020/02/24 23:00 UTC NOAA

Cruzeiro Do Sul, Brazil (SBCZ) 07-38S 072-40W
Feb 24, 2020 - 06:00 PM EST / 2020.02.24 2300 UTC
Wind: Calm:0
Visibility: greater than 7 mile(s):0
Sky conditions: partly cloudy
Temperature: 82 F (28 C)
Dew Point: 77 F (25 C)
Relative Humidity: 83%
Pressure (altimeter): 29.77 in. Hg (1008 hPa)
ob: SBCZ 242300Z 00000KT 9999 FEW030 SCT100 28/25 Q1008
cycle: 23

Station Type Date Time Source
SBCZ TAF 2019/09/19 12:09 UTC NOAA

TAF SBCZ 190900Z 1912/2012 27005KT 9999 FEW020 FEW025TCU TX34/1919Z TN23/2006Z PROB30
TEMPO 1912/1916 4000 TSRA BKN020 FEW025CB
BECMG 1916/1918 27005KT
BECMG 1923/2001 00000KT CAVOK PROB30 2006/2012 4000 BR
RMK PGZ

Example: see airport list